首页
METAR-TAF:

METAR-TAF

机场 :

格尔夫海岸, 阿拉巴马州, 美国

纬度: 30-17-23N, 经度: 087-40-18W, 海拔: 5米

当前天气观测

该预报发布于21分钟前的16:35 UTC
风速6节,风向,有时为16节阵风,在东南之间变化
温度 21°C
湿度 43%
气压 1019 hPa
能見度: 16.1公里
天空无云

METAR: KJKA 021635Z AUTO 10006G16KT 080V140 10SM CLR 21/08 A3009 RMK AO2 T02070080

时间: 11:56 (16:56 UTC)


TAF: 丢失

超过4000个机场的气象观测和天气预报(METAR&TAF报告)。

可查询的气象台以黄色和红色小点在地图上表示。

将鼠标移到小点上方,可查看气象台名称。

然后点击查看天气观测和预报。

如需切换地图:点击带黑十字的绿色按钮放大地图;点击带横线的绿色按钮缩小地图;或者点击绿色箭头查看邻近地区的地图。


METAR-TAF: